createdAt,value
2022-08-09T00:00:04.451Z,13.48
2022-08-09T00:02:47.370Z,14.88
2022-08-09T00:06:17.389Z,15.88
2022-08-09T00:08:32.424Z,15.70
2022-08-09T00:11:05.972Z,19.38
2022-08-09T00:13:52.697Z,15.18
2022-08-09T00:16:26.185Z,15.10
2022-08-09T00:19:09.494Z,16.40
2022-08-09T00:21:38.735Z,16.80
2022-08-09T00:24:27.288Z,10.00
2022-08-09T00:26:57.340Z,7.75
2022-08-09T00:30:16.195Z,7.32
2022-08-09T00:32:13.376Z,9.55
2022-08-09T00:34:52.849Z,7.90
2022-08-09T00:37:20.208Z,9.85
2022-08-09T00:40:14.129Z,9.23
2022-08-09T00:44:16.316Z,7.75
2022-08-09T00:45:50.455Z,11.43
2022-08-09T00:48:21.207Z,9.55
2022-08-09T00:50:52.319Z,12.40
2022-08-09T00:53:24.178Z,12.38
2022-08-09T00:56:05.206Z,11.32
2022-08-09T00:58:36.876Z,12.20
2022-08-09T01:01:19.395Z,12.65
2022-08-09T01:04:09.130Z,8.07
2022-08-09T01:06:54.844Z,8.07
2022-08-09T01:09:38.387Z,8.90
2022-08-09T01:12:35.043Z,7.88
2022-08-09T01:15:16.692Z,9.60
2022-08-09T01:18:03.848Z,8.68
2022-08-09T01:20:49.986Z,7.28
2022-08-09T01:24:02.623Z,6.53
2022-08-09T01:26:41.214Z,10.73
2022-08-09T01:29:12.692Z,6.53
2022-08-09T01:32:29.845Z,9.35
2022-08-09T01:34:34.946Z,8.52
2022-08-09T01:37:11.045Z,9.10
2022-08-09T01:39:43.366Z,8.43
2022-08-09T01:42:11.448Z,9.90
2022-08-09T01:44:41.523Z,8.95
2022-08-09T01:47:11.663Z,7.43
2022-08-09T01:49:40.854Z,9.38
2022-08-09T01:52:19.370Z,11.10
2022-08-09T01:54:52.656Z,11.07
2022-08-09T01:57:45.798Z,11.95
2022-08-09T02:03:06.451Z,9.65
2022-08-09T02:05:37.996Z,10.03
2022-08-09T02:08:35.979Z,11.55
2022-08-09T02:11:17.314Z,11.20
2022-08-09T02:14:08.118Z,10.50
2022-08-09T02:16:59.697Z,13.20
2022-08-09T02:19:38.473Z,12.77
2022-08-09T02:25:02.174Z,12.48
2022-08-09T02:27:58.107Z,12.77
2022-08-09T02:30:19.678Z,13.38
2022-08-09T02:32:48.508Z,13.95
2022-08-09T02:35:28.809Z,13.55
2022-08-09T02:38:27.981Z,16.35
2022-08-09T02:41:02.117Z,13.38
2022-08-09T02:43:53.735Z,15.68
2022-08-09T02:46:21.783Z,13.93
2022-08-09T02:48:51.576Z,14.48
2022-08-09T02:51:22.768Z,16.95
2022-08-09T02:54:01.091Z,16.63
2022-08-09T02:56:31.960Z,15.38
2022-08-09T02:59:03.664Z,18.30
2022-08-09T03:02:05.165Z,17.00
2022-08-09T03:04:21.815Z,16.30
2022-08-09T03:06:57.452Z,14.40
2022-08-09T03:09:33.491Z,14.25
2022-08-09T03:12:09.694Z,16.58
2022-08-09T03:14:40.864Z,14.85
2022-08-09T03:17:09.231Z,16.48
2022-08-09T03:19:57.775Z,16.23
2022-08-09T03:22:30.940Z,15.27
2022-08-09T03:25:21.471Z,18.10
2022-08-09T03:27:51.256Z,17.40
2022-08-09T03:30:30.159Z,18.80
2022-08-09T03:33:17.503Z,18.40
2022-08-09T03:36:15.888Z,17.25
2022-08-09T03:38:43.459Z,15.93
2022-08-09T03:41:18.184Z,20.25
2022-08-09T03:44:03.149Z,17.45
2022-08-09T03:46:36.919Z,14.52
2022-08-09T03:49:07.924Z,17.30
2022-08-09T03:51:56.869Z,18.15
2022-08-09T03:54:31.253Z,17.95
2022-08-09T03:57:17.972Z,17.50
2022-08-09T03:59:56.143Z,20.23
2022-08-09T04:02:31.132Z,20.20
2022-08-09T04:05:06.521Z,19.30
2022-08-09T04:07:52.440Z,18.20
2022-08-09T04:10:29.315Z,20.17
2022-08-09T04:13:00.733Z,21.00
2022-08-09T04:15:51.905Z,22.95
2022-08-09T04:18:16.495Z,23.02
2022-08-09T04:20:47.322Z,19.80
2022-08-09T04:23:17.060Z,19.42
2022-08-09T04:25:52.323Z,21.20
2022-08-09T04:28:31.410Z,17.45
2022-08-09T04:31:09.140Z,20.88
2022-08-09T04:33:52.056Z,17.95
2022-08-09T04:36:26.748Z,15.82
2022-08-09T04:38:55.442Z,20.60
2022-08-09T04:41:24.432Z,17.88
2022-08-09T04:44:09.734Z,19.38
2022-08-09T04:46:57.606Z,14.60
2022-08-09T04:49:52.295Z,15.18
2022-08-09T04:52:26.624Z,16.92
2022-08-09T04:55:01.654Z,17.05
2022-08-09T04:57:58.596Z,18.55
2022-08-09T05:00:19.718Z,16.65
2022-08-09T05:02:51.623Z,15.13
2022-08-09T05:07:59.769Z,14.43
2022-08-09T05:10:27.395Z,15.02
2022-08-09T05:12:54.936Z,13.15
2022-08-09T05:15:38.371Z,15.40
2022-08-09T05:18:39.271Z,15.27
2022-08-09T05:20:53.991Z,15.13
2022-08-09T05:23:53.546Z,16.77
2022-08-09T05:26:09.448Z,15.32
2022-08-09T05:28:53.820Z,18.88
2022-08-09T05:31:23.619Z,17.33
2022-08-09T05:34:08.338Z,14.85
2022-08-09T05:36:47.051Z,17.42
2022-08-09T05:39:28.146Z,15.63
2022-08-09T05:42:04.449Z,14.13
2022-08-09T05:44:34.960Z,18.83
2022-08-09T05:47:04.903Z,15.73
2022-08-09T05:50:24.461Z,12.23
2022-08-09T05:52:24.687Z,14.45
2022-08-09T05:54:52.218Z,15.35
2022-08-09T05:57:19.739Z,15.07
2022-08-09T05:59:52.500Z,12.15
2022-08-09T06:02:20.534Z,11.20
2022-08-09T06:04:49.299Z,11.10
2022-08-09T06:07:21.387Z,12.85
2022-08-09T06:10:01.765Z,9.32
2022-08-09T06:12:33.813Z,11.50
2022-08-09T06:15:09.494Z,11.65
2022-08-09T06:17:39.046Z,9.50
2022-08-09T06:20:08.217Z,14.52
2022-08-09T06:22:39.343Z,12.57
2022-08-09T06:25:12.337Z,10.15
2022-08-09T06:27:51.447Z,14.80
2022-08-09T06:30:19.491Z,14.45
2022-08-09T06:33:13.389Z,11.18
2022-08-09T06:35:35.663Z,10.15
2022-08-09T06:38:31.969Z,11.75
2022-08-09T06:41:18.415Z,11.88
2022-08-09T06:43:48.053Z,17.33
2022-08-09T06:46:40.348Z,14.18
2022-08-09T06:49:03.959Z,14.27
2022-08-09T06:51:33.789Z,14.95
2022-08-09T06:54:11.822Z,15.23
2022-08-09T06:56:45.529Z,16.15
2022-08-09T07:00:51.799Z,15.05
2022-08-09T07:02:04.464Z,12.90
2022-08-09T07:04:32.497Z,14.32
2022-08-09T07:07:00.688Z,15.18
2022-08-09T07:09:57.281Z,15.13
2022-08-09T07:12:17.861Z,13.85
2022-08-09T07:14:51.241Z,18.20
2022-08-09T07:17:22.218Z,20.38
2022-08-09T07:19:55.298Z,16.92
2022-08-09T07:22:34.304Z,16.13
2022-08-09T07:25:09.641Z,13.32
2022-08-09T07:27:42.753Z,14.00
2022-08-09T07:30:13.530Z,14.77
2022-08-09T07:32:41.723Z,15.07
2022-08-09T07:35:12.369Z,17.70
2022-08-09T07:40:17.138Z,12.63
2022-08-09T07:45:39.937Z,16.10
2022-08-09T07:48:25.582Z,13.60
2022-08-09T07:51:09.640Z,14.93
2022-08-09T07:54:05.798Z,18.17
2022-08-09T07:56:36.989Z,13.50
2022-08-09T07:59:12.357Z,16.07
2022-08-09T08:01:41.391Z,15.00
2022-08-09T08:04:10.686Z,12.13
2022-08-09T08:06:55.610Z,10.25
2022-08-09T08:09:38.509Z,11.57
2022-08-09T08:12:28.008Z,10.68
2022-08-09T08:14:59.535Z,13.13
2022-08-09T08:17:54.514Z,12.20
2022-08-09T08:20:32.733Z,13.75
2022-08-09T08:23:06.946Z,13.15
2022-08-09T08:25:54.153Z,10.23
2022-08-09T08:28:35.020Z,11.88
2022-08-09T08:31:14.919Z,10.73
2022-08-09T08:33:53.832Z,10.60
2022-08-09T08:36:29.634Z,13.88
2022-08-09T08:39:00.168Z,10.48
2022-08-09T08:41:42.200Z,10.55
2022-08-09T08:44:23.055Z,13.50
2022-08-09T08:47:02.516Z,10.07
2022-08-09T08:49:47.005Z,14.88
2022-08-09T08:52:59.657Z,11.65
2022-08-09T08:55:10.136Z,13.95
2022-08-09T08:57:40.337Z,15.27
2022-08-09T09:00:20.440Z,10.90
2022-08-09T09:03:02.819Z,8.68
2022-08-09T09:06:00.833Z,11.18
2022-08-09T09:08:29.779Z,8.25
2022-08-09T09:11:04.079Z,9.68
2022-08-09T09:13:55.341Z,10.80
2022-08-09T09:16:30.801Z,10.45
2022-08-09T09:22:11.709Z,13.95
2022-08-09T09:24:49.721Z,13.27
2022-08-09T09:28:06.775Z,11.07
2022-08-09T09:30:40.793Z,12.93
2022-08-09T09:33:15.864Z,11.52
2022-08-09T09:36:02.678Z,13.32
2022-08-09T09:38:59.581Z,11.45
2022-08-09T09:41:49.089Z,11.85
2022-08-09T09:44:34.988Z,13.02
2022-08-09T09:47:16.570Z,15.68
2022-08-09T09:50:14.496Z,14.85
2022-08-09T09:52:56.510Z,13.80
2022-08-09T09:55:31.345Z,15.10
2022-08-09T09:58:18.586Z,11.80
2022-08-09T10:00:59.680Z,12.38
2022-08-09T10:03:56.430Z,15.63
2022-08-09T10:06:32.296Z,12.27
2022-08-09T10:09:21.623Z,10.73
2022-08-09T10:12:12.906Z,12.88
2022-08-09T10:16:09.209Z,13.30
2022-08-09T10:18:21.244Z,15.63
2022-08-09T10:20:48.890Z,11.15
2022-08-09T10:23:24.929Z,11.00
2022-08-09T10:26:06.650Z,12.75
2022-08-09T10:28:38.462Z,11.27
2022-08-09T10:34:08.657Z,11.98
2022-08-09T10:37:31.211Z,11.40
2022-08-09T10:39:50.060Z,15.38
2022-08-09T10:42:18.701Z,9.82
2022-08-09T10:44:56.673Z,11.25
2022-08-09T10:48:17.102Z,11.82
2022-08-09T10:54:26.896Z,12.25
2022-08-09T10:57:38.014Z,11.43
2022-08-09T11:03:18.328Z,9.53
2022-08-09T11:04:33.000Z,12.38
2022-08-09T11:07:04.350Z,10.57
2022-08-09T11:09:52.837Z,9.98
2022-08-09T11:12:37.184Z,14.88
2022-08-09T11:15:09.133Z,14.63
2022-08-09T11:17:41.800Z,9.07
2022-08-09T11:20:22.250Z,11.30
2022-08-09T11:22:57.121Z,10.70
2022-08-09T11:25:44.872Z,9.82
2022-08-09T11:28:53.310Z,9.80
2022-08-09T11:31:49.536Z,10.48
2022-08-09T11:34:28.433Z,9.45
2022-08-09T11:36:59.832Z,11.85
2022-08-09T11:39:37.801Z,11.93
2022-08-09T11:42:14.786Z,13.13
2022-08-09T11:44:48.512Z,15.00
2022-08-09T11:47:19.726Z,12.25
2022-08-09T11:50:54.359Z,13.20
2022-08-09T11:53:15.487Z,10.65
2022-08-09T11:55:53.163Z,9.75
2022-08-09T11:58:32.292Z,10.88
2022-08-09T12:01:15.569Z,12.10
2022-08-09T12:04:02.008Z,13.43
2022-08-09T12:06:32.787Z,11.88
2022-08-09T12:09:19.465Z,9.40
2022-08-09T12:12:12.048Z,9.52
2022-08-09T12:15:07.393Z,11.05
2022-08-09T12:17:42.088Z,11.40
2022-08-09T12:20:25.985Z,11.40
2022-08-09T12:23:03.533Z,10.95
2022-08-09T12:25:37.548Z,9.27
2022-08-09T12:29:12.576Z,9.02
2022-08-09T12:31:10.772Z,9.38
2022-08-09T12:34:00.723Z,11.73
2022-08-09T12:37:21.852Z,14.68
2022-08-09T12:40:28.725Z,9.70
2022-08-09T12:42:57.975Z,13.52
2022-08-09T12:45:34.759Z,10.50
2022-08-09T12:48:20.025Z,14.75
2022-08-09T12:50:57.748Z,12.85
2022-08-09T12:53:37.057Z,12.55
2022-08-09T12:56:13.682Z,11.48
2022-08-09T12:59:14.328Z,11.95
2022-08-09T13:02:02.284Z,11.02
2022-08-09T13:04:38.121Z,13.60
2022-08-09T13:07:13.725Z,13.15
2022-08-09T13:09:52.666Z,13.43
2022-08-09T13:12:23.626Z,15.50
2022-08-09T13:15:02.620Z,12.48
2022-08-09T13:18:03.745Z,16.58
2022-08-09T13:22:34.086Z,13.73
2022-08-09T13:24:52.933Z,13.32
2022-08-09T13:27:48.808Z,15.30
2022-08-09T13:30:50.557Z,14.52
2022-08-09T13:37:51.995Z,11.25
2022-08-09T13:41:49.609Z,9.10
2022-08-09T13:43:35.796Z,12.73
2022-08-09T13:49:58.000Z,9.30
2022-08-09T13:52:34.862Z,5.95
2022-08-09T13:55:05.643Z,6.07
2022-08-09T14:00:17.824Z,9.90
2022-08-09T14:04:02.713Z,13.65
2022-08-09T14:06:19.327Z,6.53
2022-08-09T14:08:53.571Z,3.72
2022-08-09T14:11:26.749Z,5.60
2022-08-09T14:14:24.719Z,6.78
2022-08-09T14:16:58.616Z,4.88
2022-08-09T14:19:33.327Z,9.07
2022-08-09T14:22:01.661Z,10.38
2022-08-09T14:24:39.696Z,6.60
2022-08-09T14:27:27.641Z,7.15
2022-08-09T14:30:34.382Z,6.10
2022-08-09T14:32:52.753Z,12.35
2022-08-09T14:35:52.169Z,5.63
2022-08-09T14:41:51.747Z,7.70
2022-08-09T14:44:32.419Z,9.45
2022-08-09T14:47:41.340Z,6.70
2022-08-09T14:50:02.632Z,5.43
2022-08-09T15:16:46.481Z,8.23
2022-08-09T15:24:28.297Z,17.02
2022-08-09T15:31:01.195Z,18.98
2022-08-09T15:33:23.495Z,20.25
2022-08-09T15:41:50.701Z,27.25
2022-08-09T15:44:19.668Z,23.38
2022-08-09T15:46:52.618Z,19.60
2022-08-09T15:49:23.758Z,23.10
2022-08-09T15:52:02.857Z,25.08
2022-08-09T15:54:44.800Z,18.48
2022-08-09T15:57:36.013Z,21.10
2022-08-09T16:00:24.242Z,21.58
2022-08-09T16:02:58.281Z,17.30
2022-08-09T16:05:47.108Z,17.65
2022-08-09T16:08:30.863Z,17.63
2022-08-09T16:12:22.745Z,19.13
2022-08-09T16:14:54.430Z,19.27
2022-08-09T16:17:22.192Z,12.90
2022-08-09T16:20:04.534Z,23.80
2022-08-09T16:22:42.409Z,21.83
2022-08-09T16:25:16.691Z,26.73
2022-08-09T16:28:04.432Z,22.17
2022-08-09T16:30:32.346Z,20.73
2022-08-09T16:38:17.975Z,25.95
2022-08-09T16:40:50.180Z,22.88
2022-08-09T16:45:46.902Z,24.83
2022-08-09T16:48:40.589Z,22.80
2022-08-09T16:51:08.266Z,21.95
2022-08-09T16:53:37.174Z,18.70
2022-08-09T16:56:09.897Z,21.45
2022-08-09T16:58:39.827Z,20.45
2022-08-09T17:03:41.665Z,26.30
2022-08-09T17:06:29.071Z,25.63
2022-08-09T17:09:17.576Z,22.67
2022-08-09T17:11:52.825Z,24.42
2022-08-09T17:14:26.996Z,25.00
2022-08-09T17:17:02.306Z,25.27
2022-08-09T17:19:46.331Z,30.27
2022-08-09T17:22:35.861Z,27.77
2022-08-09T17:25:10.258Z,29.85
2022-08-09T17:27:49.453Z,25.65
2022-08-09T17:30:26.303Z,28.02
2022-08-09T17:32:57.659Z,27.17
2022-08-09T17:35:34.557Z,28.85
2022-08-09T17:38:24.518Z,29.35
2022-08-09T17:40:50.486Z,28.48
2022-08-09T17:43:37.410Z,27.30
2022-08-09T17:46:14.208Z,30.15
2022-08-09T17:48:51.721Z,29.48
2022-08-09T17:51:21.901Z,32.95
2022-08-09T17:53:54.797Z,28.15
2022-08-09T17:56:36.016Z,32.75
2022-08-09T17:59:11.401Z,25.77
2022-08-09T18:02:06.506Z,36.85
2022-08-09T18:04:30.180Z,28.55
2022-08-09T18:06:59.422Z,29.83
2022-08-09T18:09:39.988Z,30.13
2022-08-09T18:12:16.980Z,24.50
2022-08-09T18:14:53.550Z,26.02
2022-08-09T18:17:27.061Z,27.50
2022-08-09T18:20:55.190Z,18.33
2022-08-09T18:23:04.857Z,25.42
2022-08-09T18:25:52.744Z,23.85
2022-08-09T18:30:38.191Z,23.60
2022-08-09T18:31:25.111Z,15.65
2022-08-09T18:34:07.210Z,23.52
2022-08-09T18:36:36.287Z,20.85
2022-08-09T18:39:16.734Z,16.80
2022-08-09T18:41:53.040Z,16.02
2022-08-09T18:44:28.705Z,14.02
2022-08-09T18:47:04.987Z,16.83
2022-08-09T18:49:47.010Z,15.73
2022-08-09T18:52:18.759Z,13.38
2022-08-09T18:54:53.239Z,15.82
2022-08-09T18:57:22.764Z,14.75
2022-08-09T18:59:57.655Z,13.27
2022-08-09T19:02:30.510Z,15.23
2022-08-09T19:05:19.747Z,13.88
2022-08-09T19:08:04.368Z,16.30
2022-08-09T19:10:39.525Z,16.73
2022-08-09T19:13:20.448Z,15.25
2022-08-09T19:15:56.865Z,18.55
2022-08-09T19:18:33.249Z,18.45
2022-08-09T19:21:05.548Z,18.42
2022-08-09T19:26:31.371Z,17.98
2022-08-09T19:29:09.368Z,18.83
2022-08-09T19:31:46.355Z,17.85
2022-08-09T19:34:22.160Z,25.83
2022-08-09T19:36:55.337Z,21.48
2022-08-09T19:40:02.903Z,17.65
2022-08-09T19:42:19.457Z,19.90
2022-08-09T19:44:50.496Z,18.67
2022-08-09T19:47:22.918Z,16.92
2022-08-09T19:50:47.267Z,17.63
2022-08-09T19:52:51.695Z,28.17
2022-08-09T19:56:02.954Z,19.30
2022-08-09T19:58:29.811Z,20.45
2022-08-09T20:00:58.481Z,20.63
2022-08-09T20:04:12.330Z,18.40
2022-08-09T20:06:22.272Z,20.70
2022-08-09T20:08:56.719Z,18.08
2022-08-09T20:11:27.132Z,19.20
2022-08-09T20:14:15.370Z,25.63
2022-08-09T20:16:50.247Z,18.65
2022-08-09T20:19:47.491Z,15.47
2022-08-09T20:22:14.579Z,19.45
2022-08-09T20:24:43.191Z,19.88
2022-08-09T20:27:21.711Z,18.02
2022-08-09T20:29:49.561Z,19.45
2022-08-09T20:32:42.075Z,16.98
2022-08-09T20:35:06.200Z,16.30
2022-08-09T20:38:18.713Z,17.70
2022-08-09T20:40:27.599Z,19.42
2022-08-09T20:43:24.815Z,24.02
2022-08-09T20:46:00.803Z,14.30
2022-08-09T20:48:40.356Z,18.13
2022-08-09T20:51:19.208Z,16.13
2022-08-09T20:53:48.927Z,14.38
2022-08-09T20:56:21.045Z,14.27
2022-08-09T21:01:34.072Z,19.70
2022-08-09T21:05:49.449Z,18.38
2022-08-09T21:06:52.533Z,15.07
2022-08-09T21:09:32.595Z,13.93
2022-08-09T21:14:38.201Z,10.02
2022-08-09T21:18:20.825Z,13.55
2022-08-09T21:20:18.782Z,15.90
2022-08-09T21:22:54.219Z,12.52
2022-08-09T21:25:55.329Z,16.63
2022-08-09T21:28:35.254Z,13.90
2022-08-09T21:31:17.499Z,16.38
2022-08-09T21:33:52.412Z,13.38
2022-08-09T21:36:27.910Z,10.68
2022-08-09T21:38:58.858Z,15.65
2022-08-09T21:41:59.735Z,13.10
2022-08-09T21:44:33.426Z,13.57
2022-08-09T21:47:09.011Z,14.00
2022-08-09T21:49:40.608Z,12.00
2022-08-09T21:52:17.587Z,13.98
2022-08-09T21:54:59.271Z,17.05
2022-08-09T21:57:38.972Z,11.35
2022-08-09T22:00:25.910Z,14.00
2022-08-09T22:02:58.803Z,14.20
2022-08-09T22:05:35.774Z,11.27
2022-08-09T22:08:13.210Z,13.82
2022-08-09T22:11:00.877Z,11.00
2022-08-09T22:13:35.650Z,9.30
2022-08-09T22:16:08.832Z,10.40
2022-08-09T22:18:52.221Z,10.38
2022-08-09T22:21:25.327Z,12.63
2022-08-09T22:23:59.473Z,9.95
2022-08-09T22:26:35.049Z,11.27
2022-08-09T22:29:09.993Z,13.57
2022-08-09T22:31:53.193Z,10.65
2022-08-09T22:34:26.434Z,9.73
2022-08-09T22:36:55.608Z,12.32
2022-08-09T22:39:57.709Z,11.45
2022-08-09T22:42:20.752Z,9.98
2022-08-09T22:44:49.755Z,10.95
2022-08-09T22:48:14.136Z,10.80
2022-08-09T22:50:15.067Z,11.20
2022-08-09T22:52:43.651Z,10.48
2022-08-09T22:55:21.872Z,11.18
2022-08-09T22:57:59.862Z,9.15
2022-08-09T23:00:29.244Z,10.57
2022-08-09T23:02:57.040Z,9.93
2022-08-09T23:05:26.302Z,8.77
2022-08-09T23:08:27.770Z,9.73
2022-08-09T23:10:57.555Z,10.57
2022-08-09T23:13:24.841Z,10.23
2022-08-09T23:16:02.856Z,10.93
2022-08-09T23:18:31.425Z,10.77
2022-08-09T23:20:58.698Z,9.35
2022-08-09T23:23:26.181Z,11.02
2022-08-09T23:25:53.575Z,8.95
2022-08-09T23:28:20.780Z,8.20
2022-08-09T23:30:52.032Z,10.27
2022-08-09T23:33:21.390Z,11.38
2022-08-09T23:36:06.263Z,8.25
2022-08-09T23:38:48.457Z,9.32
2022-08-09T23:41:28.059Z,8.23
2022-08-09T23:44:01.754Z,7.05
2022-08-09T23:46:30.588Z,7.35
2022-08-09T23:48:59.240Z,7.97
2022-08-09T23:51:27.553Z,8.52
2022-08-09T23:54:03.089Z,6.82
2022-08-09T23:56:52.665Z,7.88
2022-08-09T23:59:21.212Z,6.47
